Time;durP1;ratioP1;P1;durP2;ratioP2;P2;SDS_P1;SDS_P2;PMS_P1;PMS_P2;Temp;Humidity;BMP_temperature;BMP_pressure;BME280_temperature;BME280_humidity;BME280_pressure;Samples;Min_cycle;Max_cycle;Signal;HPM_P1;HPM_P2
2023/04/03 00:02:31;;;;;;;1.83;1.13;;;;;;;0.77;100.00;102138.00;6273189;28;20041;-89
2023/04/03 00:05:33;;;;;;;5.43;1.30;;;;;;;0.73;100.00;102138.94;6281912;28;20162;-89
2023/04/03 00:08:35;;;;;;;4.43;1.25;;;;;;;0.67;100.00;102144.09;6282821;28;20120;-89
2023/04/03 00:11:37;;;;;;;4.25;1.90;;;;;;;0.68;100.00;102149.19;6282320;28;20418;-89
2023/04/03 00:14:39;;;;;;;4.18;1.10;;;;;;;0.62;100.00;102150.09;6264276;28;20577;-90
2023/04/03 00:17:41;;;;;;;5.35;1.13;;;;;;;0.60;100.00;102149.25;6264491;28;20718;-89
2023/04/03 00:20:43;;;;;;;2.72;1.17;;;;;;;0.59;100.00;102151.81;6284833;28;20429;-89
2023/04/03 00:23:45;;;;;;;4.65;1.02;;;;;;;0.54;100.00;102156.13;6286534;28;20174;-89
2023/04/03 00:26:47;;;;;;;2.25;1.20;;;;;;;0.49;100.00;102153.63;6287193;28;20178;-89
2023/04/03 00:29:49;;;;;;;1.52;1.00;;;;;;;0.44;100.00;102157.91;6286668;28;20147;-90
2023/04/03 00:32:52;;;;;;;1.88;0.98;;;;;;;0.41;100.00;102157.97;6285908;28;20059;-90
2023/04/03 00:35:54;;;;;;;1.67;0.98;;;;;;;0.33;100.00;102165.69;6286094;28;20118;-90
2023/04/03 00:38:56;;;;;;;5.15;1.10;;;;;;;0.29;100.00;102166.56;6283978;28;20089;-90
2023/04/03 00:41:58;;;;;;;3.60;0.85;;;;;;;0.29;100.00;102174.19;6280946;28;20365;-89
2023/04/03 00:45:00;;;;;;;3.22;0.98;;;;;;;0.26;100.00;102173.41;6285134;28;20379;-89
2023/04/03 00:48:06;;;;;;;3.70;1.08;;;;;;;0.25;100.00;102175.09;6286412;28;20047;-90
2023/04/03 00:51:19;;;;;;;4.88;1.20;;;;;;;0.16;100.00;102170.94;6283377;28;20053;-89
2023/04/03 00:54:21;;;;;;;5.20;1.48;;;;;;;0.09;100.00;102173.53;6281326;28;20418;-90
2023/04/03 00:57:24;;;;;;;5.13;1.23;;;;;;;0.06;100.00;102176.97;6268435;28;20146;-89
2023/04/03 01:00:26;;;;;;;2.47;1.00;;;;;;;0.03;100.00;102173.63;6282279;28;20056;-89
2023/04/03 01:03:31;;;;;;;6.80;1.38;;;;;;;0.01;100.00;102171.06;6284906;28;20186;-89
2023/04/03 01:06:37;;;;;;;2.45;0.80;;;;;;;-0.04;100.00;102176.19;6286258;28;20044;-89
2023/04/03 01:09:46;;;;;;;3.38;1.35;;;;;;;-0.13;100.00;102176.25;6284256;28;20037;-89
2023/04/03 01:12:50;;;;;;;3.20;0.98;;;;;;;-0.13;100.00;102177.97;6256969;28;20159;-90
2023/04/03 01:15:53;;;;;;;4.55;1.30;;;;;;;-0.12;100.00;102183.06;6283752;28;20056;-90
2023/04/03 01:18:54;;;;;;;3.25;1.17;;;;;;;-0.14;100.00;102182.22;6283549;28;20111;-90
2023/04/03 01:22:10;;;;;;;3.78;1.40;;;;;;;-0.14;100.00;102179.69;6286616;28;20040;-90
2023/04/03 01:25:13;;;;;;;5.18;1.20;;;;;;;-0.22;100.00;102181.44;6276705;28;20391;-90
2023/04/03 01:28:34;;;;;;;4.65;1.17;;;;;;;-0.27;100.00;102186.56;6285145;28;20126;-90
2023/04/03 01:31:35;;;;;;;4.13;1.20;;;;;;;-0.29;100.00;102192.50;6274196;28;20039;-90
2023/04/03 01:34:38;;;;;;;4.10;1.52;;;;;;;-0.33;100.00;102191.66;6286418;28;20151;-90
2023/04/03 01:37:40;;;;;;;4.85;1.10;;;;;;;-0.35;100.00;102203.56;6277486;28;20045;-90
2023/04/03 01:40:42;;;;;;;3.38;1.40;;;;;;;-0.36;100.00;102198.50;6283110;28;20075;-90
2023/04/03 01:43:45;;;;;;;4.38;1.25;;;;;;;-0.36;100.00;102198.50;6282473;28;20492;-89
2023/04/03 01:46:47;;;;;;;3.10;1.35;;;;;;;-0.35;100.00;102205.25;6286169;28;20033;-90
2023/04/03 01:49:49;;;;;;;5.85;1.20;;;;;;;-0.39;100.00;102195.97;6284302;28;20375;-90
2023/04/03 01:52:50;;;;;;;3.50;1.52;;;;;;;-0.40;100.00;102200.19;6286055;28;20593;-89
2023/04/03 01:55:52;;;;;;;3.97;1.60;;;;;;;-0.41;100.00;102195.97;6285939;28;20493;-90
2023/04/03 01:58:54;;;;;;;2.65;1.25;;;;;;;-0.45;100.00;102199.38;6284353;28;20167;-89
2023/04/03 02:01:56;;;;;;;4.50;1.30;;;;;;;-0.42;100.00;102199.38;6283911;28;20710;-89
2023/04/03 02:04:58;;;;;;;2.63;1.17;;;;;;;-0.47;100.00;102209.59;6282856;28;20048;-89
2023/04/03 02:08:00;;;;;;;4.88;1.30;;;;;;;-0.46;100.00;102197.69;6284996;28;20442;-89
2023/04/03 02:11:03;;;;;;;2.95;1.30;;;;;;;-0.48;100.00;102202.78;6259214;28;20414;-89
2023/04/03 02:14:05;;;;;;;5.70;1.33;;;;;;;-0.52;100.00;102201.13;6285896;28;20043;-89
2023/04/03 02:17:08;;;;;;;3.55;1.33;;;;;;;-0.51;100.00;102207.06;6283597;28;20071;-89
2023/04/03 02:20:11;;;;;;;3.70;1.70;;;;;;;-0.53;100.00;102206.22;6284028;28;20074;-89
2023/04/03 02:23:13;;;;;;;3.53;1.30;;;;;;;-0.62;100.00;102196.97;6280400;28;20040;-89
2023/04/03 02:26:16;;;;;;;5.68;1.38;;;;;;;-0.58;100.00;102203.69;6282343;28;20055;-89
2023/04/03 02:29:19;;;;;;;5.43;1.25;;;;;;;-0.62;100.00;102206.25;6274469;28;20773;-89
2023/04/03 02:32:22;;;;;;;4.45;1.23;;;;;;;-0.70;100.00;102207.16;6278734;28;20067;-89
2023/04/03 02:35:24;;;;;;;2.25;1.02;;;;;;;-0.68;100.00;102215.63;6273269;28;20479;-89
2023/04/03 02:38:28;;;;;;;2.75;1.27;;;;;;;-0.68;100.00;102212.22;6254184;28;20052;-89
2023/04/03 02:41:35;;;;;;;3.60;1.38;;;;;;;-0.77;100.00;102213.13;6282914;28;20558;-89
2023/04/03 02:44:42;;;;;;;6.03;1.88;;;;;;;-0.80;100.00;102218.22;6280007;28;20052;-89
2023/04/03 02:47:44;;;;;;;5.28;1.13;;;;;;;-0.89;100.00;102216.56;6283521;28;20157;-89
2023/04/03 02:50:46;;;;;;;3.35;1.67;;;;;;;-0.86;100.00;102218.25;6281466;28;20442;-89
2023/04/03 02:53:49;;;;;;;2.17;1.20;;;;;;;-0.84;100.00;102216.56;6276586;28;20044;-89
2023/04/03 02:56:58;;;;;;;4.47;1.15;;;;;;;-0.91;100.00;102220.81;6280930;28;20052;-89
2023/04/03 03:00:00;;;;;;;2.92;1.10;;;;;;;-0.92;100.00;102223.34;6274943;28;20056;-89
2023/04/03 03:03:02;;;;;;;6.38;1.50;;;;;;;-0.91;100.00;102227.59;6282999;28;20075;-89
2023/04/03 03:06:06;;;;;;;2.92;1.27;;;;;;;-0.97;100.00;102227.59;6282280;28;20139;-89
2023/04/03 03:09:09;;;;;;;3.28;1.10;;;;;;;-0.97;100.00;102235.22;6283202;28;20536;-89
2023/04/03 03:12:12;;;;;;;4.97;1.65;;;;;;;-0.98;100.00;102239.47;6278638;28;20037;-89
2023/04/03 03:15:15;;;;;;;4.30;1.75;;;;;;;-0.99;100.00;102242.03;6283198;28;20044;-90
2023/04/03 03:18:17;;;;;;;3.65;1.42;;;;;;;-1.00;100.00;102245.41;6286127;28;20056;-89
2023/04/03 03:21:18;;;;;;;5.05;2.00;;;;;;;-1.01;100.00;102242.03;6284890;28;20312;-90
2023/04/03 03:24:21;;;;;;;1.60;1.08;;;;;;;-1.00;100.00;102245.41;6284982;28;20051;-89
2023/04/03 03:27:23;;;;;;;2.90;1.13;;;;;;;-1.01;100.00;102236.94;6284981;28;20040;-89
2023/04/03 03:30:25;;;;;;;2.97;1.30;;;;;;;-1.00;100.00;102245.41;6272809;28;20122;-89
2023/04/03 03:33:34;;;;;;;8.48;1.50;;;;;;;-0.97;100.00;102240.31;6282738;28;20506;-89
2023/04/03 03:36:36;;;;;;;4.05;1.98;;;;;;;-1.01;100.00;102246.28;6282995;28;20040;-89
2023/04/03 03:39:38;;;;;;;6.80;1.13;;;;;;;-1.05;100.00;102247.13;6275031;28;20185;-90
2023/04/03 03:42:40;;;;;;;2.42;1.17;;;;;;;-1.04;100.00;102248.81;6275788;28;20430;-89
2023/04/03 03:45:42;;;;;;;3.80;1.20;;;;;;;-1.08;100.00;102243.72;6285159;28;20045;-89
2023/04/03 03:48:45;;;;;;;4.70;1.35;;;;;;;-1.06;100.00;102250.53;6283728;28;20451;-89
2023/04/03 03:51:47;;;;;;;5.03;1.83;;;;;;;-1.09;100.00;102254.75;6282991;28;20040;-89
2023/04/03 03:54:49;;;;;;;2.90;1.40;;;;;;;-1.13;100.00;102249.69;6264743;28;20083;-89
2023/04/03 03:57:51;;;;;;;4.93;1.30;;;;;;;-1.15;100.00;102244.59;6287854;28;20040;-90
2023/04/03 04:00:54;;;;;;;2.00;1.42;;;;;;;-1.21;100.00;102248.88;6270586;28;20224;-89
2023/04/03 04:03:56;;;;;;;7.05;1.33;;;;;;;-1.21;100.00;102256.50;6264379;28;20052;-90
2023/04/03 04:07:03;;;;;;;4.25;1.55;;;;;;;-1.21;100.00;102254.78;6287552;28;20413;-90
2023/04/03 04:10:07;;;;;;;4.80;1.45;;;;;;;-1.24;100.00;102257.34;6272215;28;20843;-89
2023/04/03 04:13:09;;;;;;;3.92;1.10;;;;;;;-1.23;100.00;102259.03;6287433;28;20060;-89
2023/04/03 04:16:11;;;;;;;4.80;1.50;;;;;;;-1.28;100.00;102260.72;6288335;28;20048;-90
2023/04/03 04:19:13;;;;;;;4.93;1.42;;;;;;;-1.30;100.00;102249.72;6287650;28;20044;-89
2023/04/03 04:22:18;;;;;;;2.00;1.20;;;;;;;-1.35;100.00;102259.88;6285783;28;20036;-89
2023/04/03 04:25:20;;;;;;;3.67;1.58;;;;;;;-1.32;100.00;102256.50;6285993;28;20048;-90
2023/04/03 04:28:22;;;;;;;2.78;1.13;;;;;;;-1.40;100.00;102255.66;6271736;28;20044;-90
2023/04/03 04:31:28;;;;;;;4.30;1.27;;;;;;;-1.38;100.00;102256.50;6287250;28;20230;-89
2023/04/03 04:34:34;;;;;;;4.43;1.40;;;;;;;-1.41;100.00;102264.97;6271429;28;20037;-90
2023/04/03 04:37:39;;;;;;;4.38;1.25;;;;;;;-1.44;100.00;102271.75;6286611;28;20041;-90
2023/04/03 04:40:42;;;;;;;3.30;1.00;;;;;;;-1.47;100.00;102274.28;6266507;28;20051;-89
2023/04/03 04:43:49;;;;;;;5.53;1.10;;;;;;;-1.52;100.00;102277.69;6287468;28;20330;-90
2023/04/03 04:46:51;;;;;;;3.45;1.10;;;;;;;-1.48;100.00;102282.78;6287453;28;20036;-90
2023/04/03 04:49:55;;;;;;;4.20;1.20;;;;;;;-1.48;100.00;102277.69;6287387;28;20045;-89
2023/04/03 04:52:58;;;;;;;6.20;1.35;;;;;;;-1.48;100.00;102282.78;6287589;28;20481;-90
2023/04/03 04:56:00;;;;;;;2.55;1.30;;;;;;;-1.42;100.00;102285.28;6289219;28;20037;-90
2023/04/03 04:59:04;;;;;;;3.75;1.20;;;;;;;-1.38;100.00;102289.53;6289493;28;20174;-90
2023/04/03 05:02:09;;;;;;;3.78;1.00;;;;;;;-1.47;100.00;102292.06;6287619;28;20055;-89
2023/04/03 05:05:12;;;;;;;6.30;1.33;;;;;;;-1.46;100.00;102284.47;6286281;28;20058;-89
2023/04/03 05:08:15;;;;;;;4.57;1.52;;;;;;;-1.50;100.00;102294.63;6286936;28;20045;-90
2023/04/03 05:11:17;;;;;;;3.92;1.80;;;;;;;-1.52;100.00;102286.97;6285179;28;20040;-89
2023/04/03 05:14:21;;;;;;;3.45;1.10;;;;;;;-1.48;100.00;102300.53;6286820;28;20460;-90
2023/04/03 05:17:23;;;;;;;3.60;1.38;;;;;;;-1.43;100.00;102299.69;6273242;28;20082;-90
2023/04/03 05:20:29;;;;;;;4.50;1.50;;;;;;;-1.42;100.00;102303.06;6287637;28;20056;-89
2023/04/03 05:23:32;;;;;;;3.40;1.10;;;;;;;-1.46;100.00;102303.94;6287196;28;20045;-90
2023/04/03 05:26:36;;;;;;;3.25;1.05;;;;;;;-1.48;100.00;102298.84;6288177;28;20047;-90
2023/04/03 05:29:43;;;;;;;4.10;1.40;;;;;;;-1.53;100.00;102296.31;6285466;28;20044;-89
2023/04/03 05:32:49;;;;;;;6.30;1.83;;;;;;;-1.51;100.00;102306.47;6285674;28;20052;-90
2023/04/03 05:35:56;;;;;;;2.90;1.27;;;;;;;-1.40;100.00;102307.31;6286105;28;20058;-90
2023/04/03 05:39:01;;;;;;;3.80;1.25;;;;;;;-1.38;100.00;102307.31;6286121;28;20125;-90
2023/04/03 05:42:04;;;;;;;8.63;1.67;;;;;;;-1.34;100.00;102316.63;6285991;28;20040;-90
2023/04/03 05:45:06;;;;;;;4.50;1.58;;;;;;;-1.31;100.00;102311.53;6287355;28;20552;-89
2023/04/03 05:48:08;;;;;;;4.22;1.40;;;;;;;-1.25;100.00;102315.75;6286295;28;20048;-89
2023/04/03 05:51:18;;;;;;;5.00;1.55;;;;;;;-1.23;100.00;102321.69;6285965;28;20044;-89
2023/04/03 05:54:28;;;;;;;;;;;;;;;-1.22;100.00;102329.28;6286303;28;20117;-89
2023/04/03 05:57:40;;;;;;;3.55;1.15;;;;;;;-1.14;100.00;102335.25;6286455;28;20126;-89
2023/04/03 06:00:45;;;;;;;4.85;1.52;;;;;;;-1.13;100.00;102344.53;6284572;28;20051;-89
2023/04/03 06:03:46;;;;;;;4.55;1.60;;;;;;;-1.08;100.00;102342.84;6286964;28;20045;-89
2023/04/03 06:06:57;;;;;;;2.95;1.20;;;;;;;-1.03;100.00;102350.47;6286963;28;20037;-90
2023/04/03 06:10:01;;;;;;;4.93;1.42;;;;;;;-0.93;100.00;102358.91;6283715;28;20456;-90
2023/04/03 06:13:04;;;;;;;4.05;1.30;;;;;;;-0.88;100.00;102358.06;6285911;28;20041;-90
2023/04/03 06:16:06;;;;;;;4.88;1.30;;;;;;;-0.81;100.00;102366.53;6284725;28;20044;-89
2023/04/03 06:19:09;;;;;;;5.28;1.50;;;;;;;-0.78;100.00;102370.75;6285994;28;20815;-89
2023/04/03 06:22:15;;;;;;;3.95;1.40;;;;;;;-0.72;100.00;102374.16;6279109;28;20056;-89
2023/04/03 06:25:18;;;;;;;5.72;1.83;;;;;;;-0.68;100.00;102370.72;6284924;28;20048;-90
2023/04/03 06:28:20;;;;;;;3.60;1.48;;;;;;;-0.62;100.00;102377.50;6285988;28;20496;-89
2023/04/03 06:31:22;;;;;;;9.93;1.92;;;;;;;-0.57;100.00;102370.72;6285669;28;20516;-89
2023/04/03 06:34:24;;;;;;;5.40;1.60;;;;;;;-0.53;100.00;102369.00;6277100;28;20045;-89
2023/04/03 06:37:28;;;;;;;6.85;1.70;;;;;;;-0.50;100.00;102374.94;6286395;28;20044;-89
2023/04/03 06:40:30;;;;;;;6.80;1.67;;;;;;;-0.47;100.00;102369.84;6274570;28;20057;-89
2023/04/03 06:43:32;;;;;;;4.60;1.45;;;;;;;-0.41;100.00;102370.66;6282925;28;20040;-89
2023/04/03 06:46:38;;;;;;;5.80;1.52;;;;;;;-0.33;100.00;102376.56;6284007;28;20121;-89
2023/04/03 06:49:41;;;;;;;9.70;2.40;;;;;;;-0.30;100.00;102387.59;6285731;28;20051;-89
2023/04/03 06:52:43;;;;;;;7.18;1.77;;;;;;;-0.26;100.00;102378.22;6286647;28;20502;-89
2023/04/03 06:55:44;;;;;;;3.97;1.45;;;;;;;-0.24;100.00;102385.00;6285800;28;20217;-89
2023/04/03 06:58:46;;;;;;;7.68;1.88;;;;;;;-0.15;100.00;102394.31;6285515;28;20518;-89
2023/04/03 07:01:48;;;;;;;6.32;1.73;;;;;;;-0.08;100.00;102403.59;6282515;28;20348;-89
2023/04/03 07:04:51;;;;;;;7.07;2.30;;;;;;;-0.01;100.00;102399.34;6285042;28;20060;-89
2023/04/03 07:07:53;;;;;;;9.80;1.80;;;;;;;0.02;100.00;102403.56;6285703;28;20044;-89
2023/04/03 07:10:56;;;;;;;8.68;2.28;;;;;;;0.04;100.00;102405.25;6285440;28;20028;-88
2023/04/03 07:13:57;;;;;;;7.60;1.73;;;;;;;0.12;100.00;102408.59;6265725;28;20051;-89
2023/04/03 07:17:00;;;;;;;7.50;1.85;;;;;;;0.20;100.00;102413.66;6285823;28;20469;-89
2023/04/03 07:20:03;;;;;;;3.53;1.65;;;;;;;0.30;100.00;102401.69;6282811;28;20044;-89
2023/04/03 07:23:06;;;;;;;5.43;1.60;;;;;;;0.38;100.00;102410.16;6257200;28;20483;-89
2023/04/03 07:26:09;;;;;;;3.38;1.35;;;;;;;0.43;100.00;102403.34;6286734;28;20449;-89
2023/04/03 07:29:10;;;;;;;7.50;1.88;;;;;;;0.49;100.00;102408.38;6281171;28;20052;-88
2023/04/03 07:32:12;;;;;;;5.13;1.83;;;;;;;0.53;100.00;102412.59;6283887;28;20039;-88
2023/04/03 07:35:14;;;;;;;5.68;1.67;;;;;;;0.58;100.00;102413.44;6283015;28;20044;-88
2023/04/03 07:38:16;;;;;;;3.17;1.40;;;;;;;0.64;100.00;102415.06;6283902;28;20040;-88
2023/04/03 07:41:20;;;;;;;4.10;1.58;;;;;;;0.77;100.00;102406.50;6283125;28;20147;-88
2023/04/03 07:44:22;;;;;;;5.63;1.60;;;;;;;0.83;100.00;102410.69;6282437;28;20086;-88
2023/04/03 07:47:24;;;;;;;3.35;1.50;;;;;;;0.82;100.00;102414.09;6285594;28;20433;-88
2023/04/03 07:50:27;;;;;;;3.90;1.50;;;;;;;0.84;100.00;102403.00;6283568;28;20056;-88
2023/04/03 07:53:29;;;;;;;4.55;1.42;;;;;;;0.97;100.00;102406.34;6265440;28;20041;-88
2023/04/03 07:56:33;;;;;;;4.85;1.45;;;;;;;1.02;100.00;102412.25;6283019;28;20098;-88
2023/04/03 07:59:35;;;;;;;4.72;1.80;;;;;;;1.06;100.00;102403.69;6284654;28;20077;-88
2023/04/03 08:02:37;;;;;;;7.28;2.10;;;;;;;1.14;100.00;102397.66;6281329;28;20028;-88
2023/04/03 08:05:45;;;;;;;4.10;1.23;;;;;;;1.36;100.00;102391.50;6283846;28;20068;-88
2023/04/03 08:08:48;;;;;;;4.65;1.05;;;;;;;1.43;100.00;102402.50;6283852;28;20588;-88
2023/04/03 08:11:52;;;;;;;4.90;1.20;;;;;;;1.45;100.00;102401.63;6280757;28;20040;-88
2023/04/03 08:14:55;;;;;;;4.55;1.33;;;;;;;1.74;100.00;102403.00;6284284;28;20448;-88
2023/04/03 08:17:58;;;;;;;9.90;1.45;;;;;;;1.74;100.00;102408.13;6282055;28;20056;-88
2023/04/03 08:21:00;;;;;;;5.70;1.45;;;;;;;1.90;100.00;102396.84;6284474;28;20469;-87
2023/04/03 08:24:03;;;;;;;3.30;1.55;;;;;;;2.02;100.00;102407.78;6284501;28;20044;-87
2023/04/03 08:27:04;;;;;;;4.78;1.15;;;;;;;2.18;100.00;102399.03;6283765;28;20434;-87
2023/04/03 08:30:07;;;;;;;4.78;1.50;;;;;;;2.10;100.00;102400.84;6282085;28;20040;-87
2023/04/03 08:33:10;;;;;;;4.60;1.30;;;;;;;2.16;100.00;102403.28;6283460;28;20233;-87
2023/04/03 08:36:19;;;;;;;2.65;1.10;;;;;;;2.34;100.00;102408.16;6283314;28;20699;-87
2023/04/03 08:39:21;;;;;;;3.47;1.20;;;;;;;2.46;100.00;102402.03;6273241;28;20049;-87
2023/04/03 08:42:41;;;;;;;5.43;2.10;;;;;;;2.53;100.00;102395.09;6287670;28;20487;-87
2023/04/03 08:45:53;;;;;;;3.92;1.35;;;;;;;2.84;100.00;102399.75;6287896;28;20040;-87
2023/04/03 08:48:57;;;;;;;3.42;0.93;;;;;;;2.93;100.00;102395.34;6288352;28;20048;-87
2023/04/03 08:52:11;;;;;;;9.43;1.42;;;;;;;3.05;100.00;102386.59;6287918;28;20040;-87
2023/04/03 08:55:37;;;;;;;3.05;1.02;;;;;;;3.27;100.00;102392.16;6269487;28;20063;-87
2023/04/03 08:58:49;;;;;;;4.28;0.98;;;;;;;3.41;100.00;102387.63;6286243;28;20044;-87
2023/04/03 09:01:53;;;;;;;2.75;1.33;;;;;;;3.50;100.00;102383.22;6287083;28;20135;-87
2023/04/03 09:04:55;;;;;;;8.65;1.27;;;;;;;3.69;100.00;102391.38;6282842;28;20122;-87
2023/04/03 09:08:07;;;;;;;10.82;1.40;;;;;;;3.79;100.00;102391.16;6282642;28;20051;-87
2023/04/03 09:11:21;;;;;;;4.10;0.93;;;;;;;3.91;100.00;102391.78;6287453;28;20568;-87
2023/04/03 09:14:41;;;;;;;1.42;0.82;;;;;;;3.99;100.00;102390.72;6280980;28;20521;-87
2023/04/03 09:17:43;;;;;;;2.42;0.90;;;;;;;4.18;100.00;102387.78;6283319;28;20059;-86
2023/04/03 09:21:12;;;;;;;5.13;1.35;;;;;;;4.58;100.00;102389.44;6279685;28;20143;-87
2023/04/03 09:24:16;;;;;;;1.70;1.00;;;;;;;4.85;100.00;102383.63;6287062;28;20049;-87
2023/04/03 09:27:18;;;;;;;1.83;0.90;;;;;;;5.13;100.00;102377.78;6286065;28;20040;-87
2023/04/03 09:30:23;;;;;;;4.32;1.10;;;;;;;5.24;100.00;102386.06;6286523;28;20363;-87
2023/04/03 09:33:25;;;;;;;3.08;0.90;;;;;;;5.43;100.00;102386.38;6287562;28;20045;-87
2023/04/03 09:36:42;;;;;;;2.78;0.98;;;;;;;5.90;100.00;102383.38;6286971;28;20045;-87
2023/04/03 09:39:50;;;;;;;1.88;1.13;;;;;;;6.30;100.00;102385.59;6285982;28;20405;-87
2023/04/03 09:42:54;;;;;;;6.10;1.20;;;;;;;6.52;100.00;102378.03;6285686;28;20048;-87
2023/04/03 09:46:33;;;;;;;3.45;1.40;;;;;;;6.83;100.00;102377.91;6286173;28;20113;-87
2023/04/03 09:49:35;;;;;;;2.28;0.90;;;;;;;7.15;100.00;102375.09;6264659;28;20053;-87
2023/04/03 09:52:40;;;;;;;1.55;1.05;;;;;;;7.40;100.00;102378.47;6285875;28;20259;-87
2023/04/03 09:55:44;;;;;;;3.00;1.25;;;;;;;7.73;100.00;102373.84;6274471;28;20076;-87
2023/04/03 09:58:49;;;;;;;2.50;1.00;;;;;;;7.51;100.00;102365.25;6288084;28;20072;-87
2023/04/03 10:02:23;;;;;;;2.60;0.82;;;;;;;7.46;100.00;102362.00;6286148;28;20036;-87
2023/04/03 10:05:40;;;;;;;4.72;1.05;;;;;;;7.36;100.00;102363.22;6274841;28;20079;-87
2023/04/03 10:08:42;;;;;;;3.72;0.95;;;;;;;7.40;100.00;102359.63;6272906;28;20124;-87
2023/04/03 10:12:05;;;;;;;3.35;1.35;;;;;;;7.43;100.00;102359.50;6284730;28;20033;-87
2023/04/03 10:15:12;;;;;;;3.95;1.10;;;;;;;7.11;100.00;102352.03;6286352;28;20064;-87
2023/04/03 10:18:30;;;;;;;2.15;0.82;;;;;;;6.68;100.00;102343.22;6285386;28;20037;-87
2023/04/03 10:22:04;;;;;;;3.08;1.00;;;;;;;6.36;100.00;102343.41;6286807;28;20479;-87
2023/04/03 10:25:38;;;;;;;2.92;0.90;;;;;;;6.12;100.00;102343.31;6257325;28;21021;-87
2023/04/03 10:28:57;;;;;;;2.95;0.70;;;;;;;6.02;100.00;102337.59;6183490;28;20050;-87
2023/04/03 10:32:17;;;;;;;1.38;0.65;;;;;;;6.29;100.00;102336.81;6167764;28;20165;-88
2023/04/03 10:35:49;;;;;;;3.15;0.80;;;;;;;6.68;100.00;102339.78;6184152;28;20065;-88
2023/04/03 10:39:16;;;;;;;3.03;0.60;;;;;;;7.34;100.00;102327.19;6168164;28;20070;-91
2023/04/03 10:42:36;;;;;;;5.85;1.00;;;;;;;7.90;100.00;102331.97;6183040;28;20050;-87
2023/04/03 10:46:02;;;;;;;;;;;;;;;7.91;98.31;102333.63;6183417;28;20437;-88
2023/04/03 10:49:09;;;;;;;1.92;1.10;;;;;;;7.64;95.96;102327.78;6182494;28;19926;-88
2023/04/03 10:52:22;;;;;;;1.42;0.88;;;;;;;7.57;95.01;102328.09;6174074;28;20268;-87
2023/04/03 10:55:24;;;;;;;1.55;0.50;;;;;;;7.66;100.00;102322.59;6182561;28;20069;-88
2023/04/03 10:58:32;;;;;;;2.92;0.80;;;;;;;7.64;99.39;102327.78;6180479;28;20069;-88
2023/04/03 11:01:37;;;;;;;6.35;1.10;;;;;;;7.44;99.92;102325.13;6202003;28;20519;-89
2023/04/03 11:04:43;;;;;;;3.08;0.68;;;;;;;7.18;100.00;102323.47;6210809;28;20083;-88
2023/04/03 11:07:53;;;;;;;3.78;0.85;;;;;;;7.01;99.16;102324.09;6284191;28;20052;-88
2023/04/03 11:11:11;;;;;;;3.35;1.30;;;;;;;7.38;98.72;102315.91;6284960;28;20036;-87
2023/04/03 11:14:36;;;;;;;3.13;0.90;;;;;;;8.02;100.00;102299.69;6278373;28;20033;-88
2023/04/03 11:17:46;;;;;;;0.80;0.60;;;;;;;8.57;96.67;102305.22;6279266;28;20040;-88
2023/04/03 11:21:00;;;;;;;2.30;0.63;;;;;;;8.97;86.14;102297.53;6285242;28;20044;-88
2023/04/03 11:24:09;;;;;;;4.03;0.82;;;;;;;9.51;88.35;102293.34;6278376;28;20097;-88
2023/04/03 11:27:19;;;;;;;2.60;0.77;;;;;;;10.03;83.73;102280.53;6282725;28;20119;-88
2023/04/03 11:30:31;;;;;;;1.85;1.00;;;;;;;10.56;78.31;102284.88;6282500;28;20055;-88
2023/04/03 11:34:11;;;;;;;1.83;1.17;;;;;;;10.54;74.11;102278.09;6265314;28;20501;-88
2023/04/03 11:37:40;;;;;;;1.53;0.67;;;;;;;10.55;68.74;102274.56;6284505;28;20040;-88
2023/04/03 11:40:44;;;;;;;2.33;0.88;;;;;;;10.71;73.28;102277.25;6283036;28;20142;-88
2023/04/03 11:44:05;;;;;;;2.58;0.63;;;;;;;10.85;74.85;102281.69;6281424;28;20040;-88
2023/04/03 11:47:10;;;;;;;1.65;0.80;;;;;;;10.54;72.14;102278.91;6265092;28;20041;-88
2023/04/03 11:50:30;;;;;;;2.53;1.10;;;;;;;10.14;77.02;102280.88;6264987;28;20053;-88
2023/04/03 11:53:40;;;;;;;1.85;0.90;;;;;;;9.87;74.58;102275.28;6283790;28;20040;-88
2023/04/03 11:56:42;;;;;;;1.53;1.17;;;;;;;9.67;77.83;102273.66;6282976;28;20499;-87
2023/04/03 11:59:44;;;;;;;16.65;3.58;;;;;;;9.49;83.95;102277.09;6283782;28;20499;-88
2023/04/03 12:02:46;;;;;;;5.13;1.13;;;;;;;9.42;81.06;102278.28;6280507;28;20406;-88
2023/04/03 12:06:09;;;;;;;67.38;16.70;;;;;;;9.26;80.84;102275.53;6282715;28;20044;-88
2023/04/03 12:09:54;;;;;;;43.88;9.60;;;;;;;9.05;81.51;102277.34;6282802;28;20051;-88
2023/04/03 12:12:58;;;;;;;3.42;0.90;;;;;;;8.77;74.57;102276.00;6279107;28;20097;-88
2023/04/03 12:16:03;;;;;;;1.60;0.85;;;;;;;8.85;81.03;102267.91;6278536;28;20542;-88
2023/04/03 12:19:30;;;;;;;3.20;1.10;;;;;;;8.71;84.10;102272.81;6284369;28;20056;-88
2023/04/03 12:23:21;;;;;;;1.35;1.08;;;;;;;8.80;84.98;102268.09;6285977;28;20119;-88
2023/04/03 12:26:27;;;;;;;2.53;0.88;;;;;;;9.42;84.04;102257.63;6284074;28;20059;-88
2023/04/03 12:30:03;;;;;;;4.13;1.08;;;;;;;9.65;78.29;102257.34;6280091;28;20132;-88
2023/04/03 12:33:28;;;;;;;2.30;0.90;;;;;;;9.52;79.78;102252.84;6280002;28;20045;-88
2023/04/03 12:36:54;;;;;;;1.85;0.70;;;;;;;9.34;78.13;102247.63;6276806;28;20047;-88
2023/04/03 12:40:16;;;;;;;2.88;1.00;;;;;;;9.20;82.92;102244.84;6280546;28;20037;-88
2023/04/03 12:43:48;;;;;;;2.97;0.80;;;;;;;9.07;77.70;102239.38;6301977;28;20453;-88
2023/04/03 12:46:52;;;;;;;2.10;0.80;;;;;;;8.87;76.67;102236.84;6285078;28;20044;-88
2023/04/03 12:49:55;;;;;;;1.80;1.30;;;;;;;8.57;73.89;102227.81;6282242;28;20379;-88
2023/04/03 12:53:18;;;;;;;1.33;0.80;;;;;;;8.21;73.15;102235.31;6287684;28;20119;-88
2023/04/03 12:56:34;;;;;;;1.27;0.80;;;;;;;7.72;79.32;102224.41;6286613;28;20419;-88
2023/04/03 12:59:36;;;;;;;2.72;0.90;;;;;;;7.49;87.62;102226.13;6284584;28;20529;-87
2023/04/03 13:02:38;;;;;;;2.63;0.77;;;;;;;7.82;92.63;102230.03;6287154;28;20512;-88
2023/04/03 13:05:44;;;;;;;1.58;0.80;;;;;;;7.96;86.92;102233.72;6270056;28;20143;-88
2023/04/03 13:09:00;;;;;;;2.30;0.90;;;;;;;7.72;91.31;102227.81;6288655;28;20461;-88
2023/04/03 13:12:15;;;;;;;1.35;0.95;;;;;;;7.98;94.46;102223.38;6286562;28;20450;-88
2023/04/03 13:15:22;;;;;;;2.25;1.00;;;;;;;8.41;86.13;102219.03;6280148;28;20037;-88
2023/04/03 13:18:36;;;;;;;4.13;1.08;;;;;;;8.82;81.63;102216.41;6287511;28;20041;-88
2023/04/03 13:21:38;;;;;;;1.73;0.77;;;;;;;9.40;84.03;102215.50;6283450;28;20078;-88
2023/04/03 13:24:40;;;;;;;4.63;0.70;;;;;;;10.06;74.50;102207.13;6287084;28;20049;-88
2023/04/03 13:27:45;;;;;;;3.03;0.77;;;;;;;10.76;72.71;102205.31;6287016;28;20095;-88
2023/04/03 13:31:13;;;;;;;2.00;0.82;;;;;;;11.25;65.64;102199.22;6284099;28;20095;-88
2023/04/03 13:34:20;;;;;;;3.47;1.08;;;;;;;11.54;63.73;102195.03;6281002;28;20036;-88
2023/04/03 13:37:28;;;;;;;2.53;0.93;;;;;;;11.30;66.19;102182.50;6285534;28;20213;-88
2023/04/03 13:40:30;;;;;;;3.45;1.05;;;;;;;10.95;66.44;102189.59;6283842;28;20109;-88
2023/04/03 13:43:47;;;;;;;3.45;1.08;;;;;;;10.54;68.01;102188.28;6278570;28;20068;-88
2023/04/03 13:47:13;;;;;;;1.33;0.73;;;;;;;10.39;65.12;102183.09;6285508;28;20037;-88
2023/04/03 13:50:22;;;;;;;2.78;0.70;;;;;;;10.12;69.48;102181.78;6277299;28;20447;-88
2023/04/03 13:53:25;;;;;;;1.52;0.80;;;;;;;10.47;62.57;102179.16;6286750;28;20044;-88
2023/04/03 13:56:37;;;;;;;4.65;0.90;;;;;;;11.47;63.51;102162.56;6279003;28;20048;-88
2023/04/03 13:59:39;;;;;;;2.40;0.88;;;;;;;11.78;55.90;102157.31;6284516;28;20055;-88
2023/04/03 14:02:41;;;;;;;2.72;1.20;;;;;;;11.59;56.16;102161.88;6281092;28;20068;-88
2023/04/03 14:05:45;;;;;;;2.50;1.25;;;;;;;10.81;51.95;102168.78;6267083;28;20178;-88
2023/04/03 14:08:48;;;;;;;1.65;0.90;;;;;;;10.15;60.17;102157.50;6286852;28;20518;-88
2023/04/03 14:11:57;;;;;;;2.38;1.27;;;;;;;9.50;62.59;102157.28;6276343;28;20509;-89
2023/04/03 14:15:01;;;;;;;2.30;1.05;;;;;;;8.97;66.50;102163.22;6286364;28;20040;-88
2023/04/03 14:18:03;;;;;;;2.80;1.08;;;;;;;8.48;72.36;102155.09;6284152;28;20052;-88
2023/04/03 14:21:12;;;;;;;3.00;0.95;;;;;;;8.47;70.76;102161.16;6281880;28;20158;-88
2023/04/03 14:24:16;;;;;;;1.98;1.15;;;;;;;8.48;73.53;102152.50;6286410;28;20036;-88
2023/04/03 14:27:21;;;;;;;2.10;1.20;;;;;;;8.97;72.12;102147.72;6281908;28;20052;-89
2023/04/03 14:30:32;;;;;;;2.30;1.00;;;;;;;9.39;65.84;102149.19;6282996;28;20080;-88